createdAt,value
2018-07-24T03:01:00.895Z,0.00
2018-07-24T03:02:01.482Z,0.00
2018-07-24T03:03:01.660Z,0.00
2018-07-24T03:04:01.694Z,0.00
2018-07-24T03:05:02.336Z,0.00
2018-07-24T03:06:02.481Z,0.00
2018-07-24T03:07:02.636Z,0.00
2018-07-24T03:08:03.679Z,0.00
2018-07-24T03:09:03.400Z,0.00
2018-07-24T03:10:02.201Z,0.00
2018-07-24T03:11:00.152Z,0.00
2018-07-24T03:12:00.186Z,0.00
2018-07-24T03:13:00.214Z,0.00
2018-07-24T03:14:00.427Z,0.00
2018-07-24T03:15:00.525Z,0.00
2018-07-24T03:16:02.751Z,0.00
2018-07-24T03:17:01.771Z,0.00
2018-07-24T03:18:03.281Z,0.00
2018-07-24T03:19:01.401Z,0.00
2018-07-24T03:20:01.704Z,0.00
2018-07-24T03:26:36.338Z,5.63
2018-07-24T03:28:47.186Z,5.63
2018-07-24T03:29:58.809Z,5.63
2018-07-24T03:30:38.679Z,5.63
2018-07-24T03:31:41.439Z,5.63
2018-07-24T03:32:45.276Z,5.63
2018-07-24T03:33:38.824Z,11.25
2018-07-24T03:34:38.954Z,11.25
2018-07-24T03:35:38.003Z,11.25
2018-07-24T03:36:51.978Z,11.25
2018-07-24T03:37:36.260Z,11.25
2018-07-24T03:38:36.081Z,16.88
2018-07-24T03:39:36.808Z,16.88
2018-07-24T03:40:36.440Z,16.88
2018-07-24T03:41:36.391Z,16.88
2018-07-24T03:42:36.623Z,16.88
2018-07-24T03:43:38.180Z,22.50
2018-07-24T03:44:36.616Z,22.50
2018-07-24T03:45:36.820Z,22.50
2018-07-24T03:46:51.675Z,22.50
2018-07-24T03:47:42.512Z,28.13
2018-07-24T03:48:39.922Z,28.13
2018-07-24T03:49:40.036Z,28.13
2018-07-24T03:50:39.005Z,33.75
2018-07-24T03:51:37.869Z,33.75
2018-07-24T03:52:38.064Z,33.75
2018-07-24T03:53:38.279Z,33.75
2018-07-24T03:54:38.365Z,39.38
2018-07-24T03:55:38.477Z,39.38
2018-07-24T03:56:38.657Z,39.38
2018-07-24T03:57:38.921Z,45.00
2018-07-24T03:58:39.176Z,45.00
2018-07-24T03:59:39.315Z,45.00
2018-07-24T04:00:39.434Z,50.63
2018-07-24T04:01:39.589Z,50.63
2018-07-24T04:02:39.804Z,50.63
2018-07-24T04:03:40.078Z,56.25
2018-07-24T04:04:40.167Z,56.25
2018-07-24T04:05:40.452Z,56.25
2018-07-24T04:06:40.511Z,56.25
2018-07-24T04:07:40.821Z,61.88
2018-07-24T04:08:40.920Z,61.88
2018-07-24T04:09:41.101Z,61.88
2018-07-24T04:10:42.076Z,67.50
2018-07-24T04:11:41.333Z,67.50
2018-07-24T04:12:41.685Z,67.50
2018-07-24T04:13:41.633Z,73.13
2018-07-24T04:14:41.981Z,73.13
2018-07-24T04:15:42.483Z,73.13
2018-07-24T04:16:42.361Z,73.13
2018-07-24T04:17:42.545Z,78.75
2018-07-24T04:18:42.932Z,78.75
2018-07-24T04:19:43.036Z,78.75
2018-07-24T04:20:43.015Z,84.38
2018-07-24T04:21:43.383Z,84.38
2018-07-24T04:22:43.358Z,84.38
2018-07-24T04:23:43.747Z,84.38
2018-07-24T04:24:43.922Z,90.00
2018-07-24T04:25:44.006Z,90.00
2018-07-24T04:26:44.095Z,90.00
2018-07-24T04:27:44.268Z,95.63
2018-07-24T04:28:44.532Z,95.63
2018-07-24T04:29:44.694Z,95.63
2018-07-24T04:30:44.997Z,95.63
2018-07-24T04:31:44.990Z,101.25
2018-07-24T04:32:45.287Z,101.25
2018-07-24T04:33:45.375Z,101.25
2018-07-24T04:34:45.616Z,101.25
2018-07-24T04:35:45.765Z,106.88
2018-07-24T04:36:45.890Z,106.88
2018-07-24T04:37:46.121Z,106.88
2018-07-24T04:38:46.300Z,106.88
2018-07-24T04:39:46.605Z,112.50
2018-07-24T04:40:46.709Z,112.50
2018-07-24T04:41:46.862Z,112.50
2018-07-24T04:42:47.151Z,112.50
2018-07-24T04:43:47.166Z,118.13
2018-07-24T04:44:47.298Z,118.13
2018-07-24T04:45:47.520Z,118.13
2018-07-24T04:46:47.739Z,118.13
2018-07-24T04:47:47.791Z,118.13
2018-07-24T04:48:48.053Z,123.75
2018-07-24T04:49:48.321Z,123.75
2018-07-24T04:50:48.303Z,123.75
2018-07-24T04:51:48.465Z,123.75
2018-07-24T04:52:48.720Z,123.75
2018-07-24T04:53:48.909Z,129.38
2018-07-24T04:54:49.102Z,129.38
2018-07-24T04:55:49.239Z,129.38
2018-07-24T04:56:49.335Z,129.38
2018-07-24T04:57:49.597Z,135.00
2018-07-24T04:58:49.800Z,135.00
2018-07-24T04:59:49.954Z,135.00
2018-07-24T05:00:50.174Z,135.00
2018-07-24T05:01:50.276Z,135.00
2018-07-24T05:02:50.442Z,135.00
2018-07-24T05:03:50.830Z,140.63
2018-07-24T05:04:50.981Z,140.63
2018-07-24T05:05:51.110Z,140.63
2018-07-24T05:06:51.183Z,140.63
2018-07-24T05:07:51.415Z,140.63
2018-07-24T05:08:51.619Z,146.25
2018-07-24T05:09:51.756Z,146.25
2018-07-24T05:10:51.904Z,146.25
2018-07-24T05:11:52.095Z,146.25
2018-07-24T05:12:52.308Z,146.25
2018-07-24T05:13:52.504Z,151.88
2018-07-24T05:14:52.656Z,151.88
2018-07-24T05:15:52.912Z,151.88
2018-07-24T05:16:52.959Z,151.88
2018-07-24T05:17:53.175Z,157.50
2018-07-24T05:18:53.417Z,157.50
2018-07-24T05:19:53.628Z,157.50
2018-07-24T05:20:53.735Z,163.13
2018-07-24T05:21:53.977Z,168.75
2018-07-24T05:22:54.038Z,168.75
2018-07-24T05:23:54.237Z,168.75
2018-07-24T05:24:54.350Z,174.38
2018-07-24T05:25:54.524Z,174.38
2018-07-24T05:26:56.378Z,180.00
2018-07-24T05:27:55.416Z,185.63
2018-07-24T05:28:55.255Z,191.25
2018-07-24T05:29:55.550Z,191.25
2018-07-24T05:30:55.799Z,196.88
2018-07-24T05:35:43.231Z,213.75
2018-07-24T05:36:42.271Z,219.38
2018-07-24T05:37:41.597Z,219.38
2018-07-24T05:38:42.075Z,219.38
2018-07-24T05:39:43.107Z,225.00
2018-07-24T05:41:42.735Z,219.38
2018-07-24T05:43:44.475Z,225.00
2018-07-24T05:44:45.618Z,225.00
2018-07-24T05:45:45.064Z,230.63
2018-07-24T05:46:44.069Z,230.63
2018-07-24T05:47:43.540Z,236.25
2018-07-24T05:48:42.338Z,236.25
2018-07-24T05:49:41.926Z,236.25
2018-07-24T05:50:41.826Z,241.88
2018-07-24T05:51:41.750Z,241.88
2018-07-24T05:52:41.982Z,241.88
2018-07-24T05:53:42.258Z,247.50
2018-07-24T05:54:42.328Z,247.50
2018-07-24T05:55:42.513Z,247.50
2018-07-24T05:56:42.693Z,253.13
2018-07-24T05:57:42.818Z,253.13
2018-07-24T05:58:42.799Z,253.13
2018-07-24T05:59:43.144Z,258.75
2018-07-24T06:00:44.068Z,258.75
2018-07-24T06:01:43.390Z,258.75
2018-07-24T06:02:43.644Z,264.38
2018-07-24T06:03:43.896Z,264.38
2018-07-24T06:04:43.893Z,264.38
2018-07-24T06:05:44.459Z,264.38
2018-07-24T06:06:44.444Z,264.38
2018-07-24T06:07:45.253Z,264.38
2018-07-24T06:08:44.606Z,264.38
2018-07-24T06:09:45.206Z,270.00
2018-07-24T06:10:44.888Z,270.00
2018-07-24T06:11:45.107Z,270.00
2018-07-24T06:12:45.229Z,270.00
2018-07-24T06:13:45.427Z,275.63
2018-07-24T06:14:45.632Z,275.63
2018-07-24T06:15:45.873Z,281.25
2018-07-24T06:16:45.954Z,281.25
2018-07-24T06:17:45.950Z,281.25
2018-07-24T06:18:46.341Z,286.88
2018-07-24T06:19:46.453Z,286.88
2018-07-24T06:20:46.914Z,286.88
2018-07-24T06:21:46.780Z,292.50
2018-07-24T06:23:03.312Z,292.50
2018-07-24T06:28:07.611Z,303.75
2018-07-24T06:29:07.875Z,303.75
2018-07-24T06:30:08.526Z,303.75
2018-07-24T06:31:08.385Z,303.75
2018-07-24T06:32:05.782Z,309.38
2018-07-24T06:33:05.865Z,309.38
2018-07-24T06:34:06.005Z,309.38
2018-07-24T06:35:06.239Z,309.38
2018-07-24T06:36:06.441Z,309.38
2018-07-24T06:37:06.535Z,309.38
2018-07-24T06:38:06.775Z,309.38
2018-07-24T06:39:06.873Z,315.00
2018-07-24T06:40:07.084Z,315.00
2018-07-24T06:41:07.199Z,315.00
2018-07-24T06:42:07.507Z,315.00
2018-07-24T06:43:07.590Z,320.63
2018-07-24T06:44:07.827Z,320.63
2018-07-24T06:45:08.049Z,320.63
2018-07-24T06:46:08.138Z,320.63
2018-07-24T06:47:08.403Z,326.25
2018-07-24T06:48:08.484Z,326.25
2018-07-24T06:49:08.755Z,326.25
2018-07-24T06:50:08.918Z,326.25
2018-07-24T06:51:09.069Z,331.88
2018-07-24T06:52:09.268Z,331.88
2018-07-24T06:53:09.450Z,331.88
2018-07-24T06:54:09.586Z,331.88
2018-07-24T06:55:09.775Z,337.50
2018-07-24T06:56:09.911Z,337.50
2018-07-24T06:57:10.111Z,337.50
2018-07-24T06:58:10.320Z,337.50
2018-07-24T06:59:10.418Z,343.13
2018-07-24T07:00:10.654Z,343.13
2018-07-24T07:01:10.853Z,343.13
2018-07-24T07:02:11.137Z,348.75
2018-07-24T07:03:11.144Z,348.75
2018-07-24T07:04:11.386Z,348.75
2018-07-24T07:05:11.649Z,348.75
2018-07-24T07:06:11.768Z,360.00
2018-07-24T07:07:11.921Z,354.38
2018-07-24T07:08:12.232Z,354.38
2018-07-24T07:09:12.233Z,354.38
2018-07-24T07:10:12.407Z,360.00
2018-07-24T07:11:12.592Z,360.00
2018-07-24T07:12:12.670Z,360.00
2018-07-24T07:13:12.902Z,360.00
2018-07-24T07:14:12.965Z,365.63
2018-07-24T07:15:13.202Z,365.63
2018-07-24T07:16:13.339Z,365.63
2018-07-24T07:17:13.535Z,365.63
2018-07-24T07:18:13.685Z,365.63
2018-07-24T07:19:13.846Z,371.25
2018-07-24T07:20:14.101Z,371.25
2018-07-24T07:21:14.222Z,371.25
2018-07-24T07:22:15.463Z,382.50
2018-07-24T07:23:14.514Z,376.88
2018-07-24T07:24:14.696Z,376.88
2018-07-24T07:25:14.884Z,376.88
2018-07-24T07:26:15.014Z,376.88
2018-07-24T07:27:15.161Z,376.88
2018-07-24T07:28:15.477Z,376.88
2018-07-24T07:29:15.678Z,382.50
2018-07-24T07:30:15.746Z,382.50
2018-07-24T07:31:15.953Z,382.50
2018-07-24T07:32:16.122Z,382.50
2018-07-24T07:33:16.562Z,388.13
2018-07-24T07:34:16.498Z,388.13
2018-07-24T07:35:16.583Z,388.13
2018-07-24T07:36:16.894Z,393.75
2018-07-24T07:37:17.023Z,393.75
2018-07-24T07:38:17.357Z,393.75
2018-07-24T07:39:17.510Z,393.75
2018-07-24T07:40:17.729Z,399.38
2018-07-24T07:41:17.775Z,399.38
2018-07-24T07:42:18.050Z,399.38
2018-07-24T07:43:18.250Z,399.38
2018-07-24T07:44:18.264Z,405.00
2018-07-24T07:45:18.567Z,405.00
2018-07-24T07:46:18.656Z,405.00
2018-07-24T07:47:19.014Z,405.00
2018-07-24T07:48:19.082Z,410.63
2018-07-24T07:49:19.218Z,410.63
2018-07-24T07:50:19.537Z,410.63
2018-07-24T07:51:20.010Z,410.63
2018-07-24T07:52:20.249Z,416.25
2018-07-24T07:53:19.947Z,416.25
2018-07-24T07:54:20.117Z,416.25
2018-07-24T07:55:20.327Z,421.88
2018-07-24T07:56:20.399Z,427.50
2018-07-24T07:57:20.641Z,421.88
2018-07-24T07:58:20.820Z,421.88
2018-07-24T07:59:21.064Z,427.50
2018-07-24T08:00:21.043Z,427.50
2018-07-24T08:01:21.412Z,427.50
2018-07-24T08:02:21.713Z,427.50
2018-07-24T08:03:21.639Z,427.50
2018-07-24T08:04:21.640Z,433.13
2018-07-24T08:05:21.886Z,433.13
2018-07-24T08:06:22.006Z,433.13
2018-07-24T08:07:22.102Z,438.75
2018-07-24T08:08:22.401Z,438.75
2018-07-24T08:09:22.444Z,444.38
2018-07-24T08:10:22.741Z,444.38
2018-07-24T08:11:22.870Z,450.00
2018-07-24T08:12:23.010Z,450.00
2018-07-24T08:13:23.288Z,455.63
2018-07-24T08:14:23.340Z,450.00
2018-07-24T08:15:23.627Z,455.63
2018-07-24T08:16:23.845Z,466.88
2018-07-24T08:17:24.048Z,489.38
2018-07-24T08:18:24.204Z,511.88
2018-07-24T08:19:24.296Z,511.88
2018-07-24T08:20:24.460Z,511.88
2018-07-24T08:21:24.649Z,517.50
2018-07-24T08:22:24.746Z,528.75
2018-07-24T08:23:24.987Z,545.63
2018-07-24T08:24:25.310Z,551.25
2018-07-24T08:25:25.385Z,568.13
2018-07-24T08:26:25.488Z,590.63
2018-07-24T08:27:25.678Z,601.88
2018-07-24T08:28:25.860Z,624.38
2018-07-24T08:29:26.060Z,641.25
2018-07-24T08:30:26.398Z,652.50
2018-07-24T08:31:26.529Z,658.13
2018-07-24T08:32:26.602Z,663.75
2018-07-24T08:33:26.824Z,680.63
2018-07-24T08:34:27.026Z,691.88
2018-07-24T08:35:27.299Z,708.75
2018-07-24T08:36:27.289Z,708.75
2018-07-24T08:37:27.606Z,720.00
2018-07-24T08:38:27.861Z,731.25
2018-07-24T08:39:27.774Z,748.13
2018-07-24T08:40:28.083Z,759.38
2018-07-24T08:41:28.311Z,770.63
2018-07-24T08:42:28.390Z,787.50
2018-07-24T08:43:28.577Z,804.38
2018-07-24T08:44:28.659Z,765.00
2018-07-24T08:45:28.909Z,601.88
2018-07-24T08:46:29.081Z,500.63
2018-07-24T08:47:29.375Z,495.00
2018-07-24T08:48:29.376Z,495.00
2018-07-24T08:49:29.660Z,489.38
2018-07-24T08:50:29.842Z,495.00
2018-07-24T08:51:30.027Z,495.00
2018-07-24T08:52:30.161Z,495.00
2018-07-24T08:53:30.616Z,500.63
2018-07-24T08:54:30.556Z,500.63
2018-07-24T08:55:31.097Z,500.63
2018-07-24T08:56:30.847Z,506.25
2018-07-24T08:57:31.162Z,506.25
2018-07-24T08:58:31.324Z,511.88
2018-07-24T08:59:31.447Z,506.25
2018-07-24T09:00:31.664Z,511.88
2018-07-24T09:01:31.781Z,511.88
2018-07-24T09:02:31.964Z,511.88
2018-07-24T09:03:32.299Z,523.13
2018-07-24T09:04:32.386Z,517.50
2018-07-24T09:05:32.523Z,523.13
2018-07-24T09:06:32.635Z,523.13
2018-07-24T09:07:32.850Z,523.13
2018-07-24T09:08:33.083Z,523.13
2018-07-24T09:09:33.183Z,528.75
2018-07-24T09:10:33.418Z,528.75
2018-07-24T09:11:33.506Z,528.75
2018-07-24T09:12:33.789Z,534.38
2018-07-24T09:13:33.927Z,534.38
2018-07-24T09:14:34.157Z,534.38
2018-07-24T09:15:34.381Z,534.38
2018-07-24T09:16:34.429Z,534.38
2018-07-24T09:17:34.601Z,534.38
2018-07-24T09:18:34.800Z,545.63
2018-07-24T09:19:35.019Z,540.00
2018-07-24T09:20:35.150Z,540.00
2018-07-24T09:21:35.235Z,540.00
2018-07-24T09:22:35.436Z,540.00
2018-07-24T09:23:35.723Z,540.00
2018-07-24T09:24:35.871Z,540.00
2018-07-24T09:25:36.042Z,540.00
2018-07-24T09:26:36.191Z,540.00
2018-07-24T09:27:36.311Z,540.00
2018-07-24T09:28:36.476Z,540.00
2018-07-24T09:29:36.681Z,540.00
2018-07-24T09:30:36.904Z,540.00
2018-07-24T09:31:37.104Z,540.00
2018-07-24T09:32:37.255Z,540.00
2018-07-24T09:33:37.415Z,540.00
2018-07-24T09:34:37.603Z,540.00
2018-07-24T09:35:37.760Z,540.00
2018-07-24T09:36:37.955Z,545.63
2018-07-24T09:37:38.066Z,540.00
2018-07-24T09:38:38.202Z,545.63
2018-07-24T09:39:38.393Z,545.63
2018-07-24T09:40:38.525Z,545.63
2018-07-24T09:41:38.720Z,545.63
2018-07-24T09:42:38.965Z,551.25
2018-07-24T09:43:39.070Z,551.25
2018-07-24T09:44:39.276Z,551.25
2018-07-24T09:45:39.515Z,556.88
2018-07-24T09:46:39.597Z,556.88
2018-07-24T09:47:39.698Z,568.13
2018-07-24T09:48:40.067Z,793.13
2018-07-24T09:49:40.081Z,1276.88
2018-07-24T09:50:40.389Z,1800.00
2018-07-24T09:51:40.517Z,2165.63
2018-07-24T09:52:40.666Z,2227.50
2018-07-24T09:53:40.857Z,2250.00
2018-07-24T09:54:40.985Z,2278.13
2018-07-24T09:55:41.997Z,2295.00
2018-07-24T09:56:41.340Z,2345.63
2018-07-24T09:57:41.476Z,2362.50
2018-07-24T09:58:41.647Z,2390.63
2018-07-24T09:59:41.796Z,2413.13
2018-07-24T10:00:42.017Z,2441.25
2018-07-24T10:01:42.806Z,2441.25
2018-07-24T10:02:42.486Z,2463.75
2018-07-24T10:03:42.577Z,2469.38
2018-07-24T10:04:42.816Z,2486.25
2018-07-24T10:05:42.901Z,2486.25
2018-07-24T10:06:43.062Z,2480.63
2018-07-24T10:07:43.361Z,2480.63
2018-07-24T10:08:43.448Z,2497.50
2018-07-24T10:09:43.666Z,2525.63
2018-07-24T10:10:43.817Z,2553.75
2018-07-24T10:11:44.057Z,2587.50
2018-07-24T10:12:44.221Z,2621.25
2018-07-24T10:13:44.323Z,2621.25
2018-07-24T10:14:44.574Z,2655.00
2018-07-24T10:15:44.748Z,2683.13
2018-07-24T10:16:45.020Z,2677.50
2018-07-24T10:17:45.120Z,2694.38
2018-07-24T10:18:45.335Z,2705.63
2018-07-24T10:19:45.383Z,2716.88
2018-07-24T10:20:45.663Z,2722.50
2018-07-24T10:21:45.804Z,2728.13
2018-07-24T10:22:45.951Z,2739.38
2018-07-24T10:23:46.115Z,2756.25
2018-07-24T10:24:46.273Z,2773.13
2018-07-24T10:25:46.460Z,2801.25
2018-07-24T10:26:46.631Z,2812.50
2018-07-24T10:27:46.804Z,2835.00
2018-07-24T10:28:47.051Z,2840.63
2018-07-24T10:29:47.242Z,2863.13
2018-07-24T10:30:47.380Z,2863.13
2018-07-24T10:31:47.543Z,2868.75
2018-07-24T10:32:47.734Z,2885.63
2018-07-24T10:33:47.967Z,2902.50
2018-07-24T10:34:48.065Z,2925.00
2018-07-24T10:35:48.273Z,2941.88
2018-07-24T10:36:48.622Z,2970.00
2018-07-24T10:37:48.645Z,2986.88
2018-07-24T10:38:48.977Z,2998.13
2018-07-24T10:39:49.060Z,3009.38
2018-07-24T10:40:49.254Z,2998.13
2018-07-24T10:41:49.538Z,3003.75
2018-07-24T10:42:49.573Z,3020.63
2018-07-24T10:43:49.855Z,3026.25
2018-07-24T10:44:50.016Z,3037.50
2018-07-24T10:45:50.176Z,3065.63
2018-07-24T10:46:50.496Z,3110.63
2018-07-24T10:47:50.509Z,3144.38
2018-07-24T10:48:50.831Z,3161.25
2018-07-24T10:49:50.961Z,3178.13
2018-07-24T10:50:51.251Z,3178.13
2018-07-24T10:51:51.357Z,3183.75
2018-07-24T10:52:51.566Z,3189.38
2018-07-24T10:53:51.802Z,3183.75
2018-07-24T10:54:51.975Z,3234.38
2018-07-24T10:55:52.318Z,3240.00
2018-07-24T10:56:52.491Z,3228.75
2018-07-24T10:57:52.564Z,3223.13
2018-07-24T10:58:53.041Z,3206.25
2018-07-24T10:59:52.987Z,3211.88
2018-07-24T11:00:53.188Z,3183.75
2018-07-24T11:01:53.495Z,3211.88
2018-07-24T11:02:53.561Z,3200.63
2018-07-24T11:03:53.701Z,3200.63
2018-07-24T11:04:54.029Z,3223.13
2018-07-24T11:05:54.157Z,3273.75
2018-07-24T11:06:54.335Z,3307.50
2018-07-24T11:07:54.450Z,3386.25
2018-07-24T11:08:54.630Z,3442.50
2018-07-24T11:09:55.092Z,3476.25
2018-07-24T11:11:55.517Z,3493.13
2018-07-24T11:12:55.562Z,3504.38
2018-07-24T11:13:55.902Z,3521.25
2018-07-24T11:14:55.900Z,3543.75
2018-07-24T11:15:56.120Z,3521.25
2018-07-24T11:16:56.393Z,3504.38
2018-07-24T11:17:56.553Z,3510.00
2018-07-24T11:18:56.665Z,3510.00
2018-07-24T11:19:56.743Z,3498.75
2018-07-24T11:20:57.155Z,3493.13
2018-07-24T11:21:57.197Z,3493.13
2018-07-24T11:22:57.582Z,3459.38
2018-07-24T11:23:57.655Z,3459.38
2018-07-24T11:24:57.796Z,3465.00
2018-07-24T11:25:57.981Z,3476.25
2018-07-24T11:26:58.253Z,3476.25
2018-07-24T11:27:58.447Z,3476.25
2018-07-24T11:30:03.391Z,3532.50
2018-07-24T11:31:01.202Z,3538.13
2018-07-24T11:33:40.763Z,3515.63
2018-07-24T11:35:02.297Z,3510.00
2018-07-24T11:35:38.532Z,3532.50
2018-07-24T11:37:38.401Z,3555.00
2018-07-24T11:38:35.906Z,3571.88
2018-07-24T11:39:36.124Z,3605.63
2018-07-24T11:40:35.800Z,3605.63
2018-07-24T11:41:33.796Z,3616.88
2018-07-24T11:42:33.796Z,3661.88
2018-07-24T11:43:33.966Z,3667.50
2018-07-24T11:44:34.082Z,3684.38
2018-07-24T11:45:34.217Z,3712.50
2018-07-24T11:46:34.673Z,3774.38
2018-07-24T11:47:34.731Z,3768.75
2018-07-24T11:48:34.856Z,3785.63
2018-07-24T11:49:35.207Z,3813.75
2018-07-24T11:50:35.203Z,3813.75
2018-07-24T11:51:35.520Z,3825.00
2018-07-24T11:52:35.559Z,3858.75
2018-07-24T11:53:49.289Z,3870.00
2018-07-24T11:54:42.245Z,3830.63
2018-07-24T11:55:50.796Z,3819.38
2018-07-24T11:56:47.246Z,3836.25
2018-07-24T11:57:40.517Z,3836.25
2018-07-24T11:58:39.458Z,3819.38
2018-07-24T11:59:37.103Z,3802.50
2018-07-24T12:00:37.152Z,3796.88
2018-07-24T12:01:37.524Z,3768.75
2018-07-24T12:02:37.692Z,3774.38
2018-07-24T12:03:37.961Z,3785.63
2018-07-24T12:04:38.141Z,3774.38
2018-07-24T12:05:38.206Z,3791.25
2018-07-24T12:06:38.440Z,3819.38
2018-07-24T12:07:38.689Z,3841.88
2018-07-24T12:08:38.755Z,3881.25
2018-07-24T12:09:39.001Z,3915.00
2018-07-24T12:10:39.172Z,3915.00
2018-07-24T12:11:39.468Z,3881.25
2018-07-24T12:12:39.642Z,3791.25
2018-07-24T12:13:39.785Z,3740.63
2018-07-24T12:14:40.165Z,3678.75
2018-07-24T12:15:40.309Z,3594.38
2018-07-24T12:16:40.367Z,3549.38
2018-07-24T12:17:40.496Z,3571.88
2018-07-24T12:18:40.765Z,3611.25
2018-07-24T12:29:07.162Z,4066.88
2018-07-24T12:31:28.626Z,4111.88
2018-07-24T12:32:51.549Z,4111.88
2018-07-24T12:33:51.390Z,4111.88
2018-07-24T12:34:49.509Z,4111.88
2018-07-24T12:35:49.514Z,4123.13
2018-07-24T12:36:49.682Z,4117.50
2018-07-24T12:37:49.933Z,4134.38
2018-07-24T12:38:50.034Z,4111.88
2018-07-24T12:39:49.931Z,4111.88
2018-07-24T12:40:50.219Z,4111.88
2018-07-24T12:41:50.663Z,4123.13
2018-07-24T12:42:50.739Z,4140.00
2018-07-24T12:43:50.715Z,4134.38
2018-07-24T12:44:50.901Z,4117.50
2018-07-24T12:45:51.138Z,4123.13
2018-07-24T12:46:51.442Z,4117.50
2018-07-24T12:47:51.521Z,4117.50
2018-07-24T12:48:51.777Z,4151.25
2018-07-24T12:49:51.916Z,4134.38
2018-07-24T12:50:52.244Z,4162.50
2018-07-24T12:51:52.276Z,4168.13
2018-07-24T12:52:52.584Z,4201.88
2018-07-24T12:53:52.680Z,4213.13
2018-07-24T12:54:52.882Z,4201.88
2018-07-24T12:55:53.204Z,4128.75
2018-07-24T12:56:53.250Z,4095.00
2018-07-24T12:57:53.611Z,4061.25
2018-07-24T12:58:53.901Z,4027.50
2018-07-24T12:59:54.045Z,3965.63
2018-07-24T13:00:54.266Z,3954.38
2018-07-24T13:01:54.438Z,3920.63
2018-07-24T13:02:54.921Z,3920.63
2018-07-24T13:03:55.012Z,3943.13
2018-07-24T13:04:56.149Z,3988.13
2018-07-24T13:05:55.204Z,4050.00
2018-07-24T13:06:58.922Z,4078.13
2018-07-24T13:07:56.175Z,4128.75
2018-07-24T13:08:56.025Z,4201.88
2018-07-24T13:09:56.150Z,4196.25
2018-07-24T13:10:56.225Z,4173.75
2018-07-24T13:11:56.304Z,4179.38
2018-07-24T13:12:58.174Z,4190.63
2018-07-24T13:13:56.781Z,4196.25
2018-07-24T13:14:56.999Z,4213.13
2018-07-24T13:15:57.239Z,4218.75
2018-07-24T13:16:57.408Z,4213.13
2018-07-24T13:17:57.515Z,4213.13
2018-07-24T13:18:57.842Z,4263.75
2018-07-24T13:19:57.864Z,4252.50
2018-07-24T13:20:58.215Z,4235.63
2018-07-24T13:21:58.461Z,4230.00
2018-07-24T13:22:59.118Z,4258.13
2018-07-24T13:23:58.791Z,4235.63
2018-07-24T13:24:59.144Z,4224.38
2018-07-24T13:25:59.209Z,4224.38
2018-07-24T13:26:59.429Z,4235.63
2018-07-24T13:27:59.554Z,4241.25
2018-07-24T13:28:59.672Z,4269.38
2018-07-24T13:29:59.933Z,4280.63
2018-07-24T13:31:00.020Z,4258.13
2018-07-24T13:32:00.194Z,4246.88
2018-07-24T13:33:00.483Z,4258.13
2018-07-24T13:34:00.679Z,4280.63
2018-07-24T13:35:00.795Z,4252.50
2018-07-24T13:36:01.090Z,4224.38
2018-07-24T13:37:01.193Z,4207.50
2018-07-24T13:38:01.364Z,4207.50
2018-07-24T13:39:01.613Z,4156.88
2018-07-24T13:40:01.744Z,4162.50
2018-07-24T13:41:02.044Z,4213.13
2018-07-24T13:42:02.167Z,4218.75
2018-07-24T13:43:02.377Z,4252.50
2018-07-24T13:44:02.517Z,4224.38
2018-07-24T13:45:02.785Z,4280.63
2018-07-24T13:46:02.881Z,4230.00
2018-07-24T13:47:03.095Z,4173.75
2018-07-24T13:48:03.313Z,4151.25
2018-07-24T13:49:03.455Z,4111.88
2018-07-24T13:50:03.828Z,4078.13
2018-07-24T13:51:03.926Z,4033.13
2018-07-24T13:52:04.003Z,4005.00
2018-07-24T13:53:04.218Z,3999.38
2018-07-24T13:54:04.434Z,3954.38
2018-07-24T13:55:04.635Z,3971.25
2018-07-24T13:56:04.872Z,3898.13
2018-07-24T13:57:05.007Z,3791.25
2018-07-24T13:58:05.305Z,3639.38
2018-07-24T13:59:05.350Z,3555.00
2018-07-24T14:00:05.607Z,3425.63
2018-07-24T14:01:05.794Z,3330.00
2018-07-24T14:02:05.927Z,3346.88
2018-07-24T14:03:06.088Z,3436.88
2018-07-24T14:04:06.464Z,3498.75
2018-07-24T14:05:06.555Z,3583.13
2018-07-24T14:06:06.791Z,3718.13
2018-07-24T14:07:07.028Z,3813.75
2018-07-24T14:08:07.189Z,3948.75
2018-07-24T14:09:07.420Z,3948.75
2018-07-24T14:10:07.463Z,3976.88
2018-07-24T14:11:07.861Z,3976.88
2018-07-24T14:12:07.973Z,3993.75
2018-07-24T14:13:08.067Z,4016.25
2018-07-24T14:14:08.291Z,4005.00
2018-07-24T14:15:08.373Z,3976.88
2018-07-24T14:16:08.637Z,3960.00
2018-07-24T14:17:08.803Z,3937.50
2018-07-24T14:18:09.166Z,3915.00
2018-07-24T14:19:09.230Z,3853.13
2018-07-24T14:20:09.629Z,3796.88
2018-07-24T14:21:09.655Z,3718.13
2018-07-24T14:22:09.771Z,3650.63
2018-07-24T14:23:09.880Z,3611.25
2018-07-24T14:24:10.121Z,3583.13
2018-07-24T14:25:10.299Z,3583.13
2018-07-24T14:26:10.601Z,3600.00
2018-07-24T14:27:10.673Z,3600.00
2018-07-24T14:28:10.859Z,3611.25
2018-07-24T14:29:11.002Z,3616.88
2018-07-24T14:30:11.314Z,3588.75
2018-07-24T14:31:11.459Z,3611.25
2018-07-24T14:32:11.647Z,3633.75
2018-07-24T14:33:11.766Z,3628.13
2018-07-24T14:34:12.010Z,3650.63
2018-07-24T14:35:12.149Z,3667.50
2018-07-24T14:36:12.457Z,3656.25
2018-07-24T14:37:12.592Z,3656.25
2018-07-24T14:38:12.797Z,3645.00
2018-07-24T14:39:13.046Z,3616.88
2018-07-24T14:40:13.185Z,3605.63
2018-07-24T14:41:13.332Z,3583.13
2018-07-24T14:42:13.567Z,3571.88
2018-07-24T14:43:13.754Z,3555.00
2018-07-24T14:44:13.884Z,3510.00
2018-07-24T14:45:14.106Z,3510.00
2018-07-24T14:46:14.235Z,3538.13
2018-07-24T14:47:14.427Z,3521.25
2018-07-24T14:48:14.660Z,3560.63
2018-07-24T14:49:14.831Z,3577.50
2018-07-24T14:50:15.041Z,3588.75
2018-07-24T14:51:15.186Z,3577.50
2018-07-24T14:52:15.416Z,3549.38
2018-07-24T14:53:15.559Z,3526.88
2018-07-24T14:54:15.697Z,3470.63
2018-07-24T14:55:15.978Z,2660.63
2018-07-24T14:56:16.075Z,2193.75
2018-07-24T14:57:16.384Z,585.00
2018-07-24T14:58:16.519Z,545.63
2018-07-24T14:59:16.661Z,528.75
2018-07-24T15:00:16.917Z,534.38
2018-07-24T15:01:17.078Z,1023.75
2018-07-24T15:02:17.291Z,2536.88
2018-07-24T15:03:17.477Z,652.50
2018-07-24T15:04:17.677Z,2036.25
2018-07-24T15:05:17.936Z,641.25
2018-07-24T15:06:18.088Z,562.50
2018-07-24T15:07:18.326Z,551.25
2018-07-24T15:08:18.478Z,585.00
2018-07-24T15:09:18.630Z,596.25
2018-07-24T15:10:18.893Z,860.63
2018-07-24T15:11:19.056Z,624.38
2018-07-24T15:12:19.170Z,2829.38
2018-07-24T15:13:19.430Z,3234.38
2018-07-24T15:14:19.688Z,3200.63
2018-07-24T15:15:19.902Z,3206.25
2018-07-24T15:16:19.952Z,3155.63
2018-07-24T15:17:20.229Z,2857.50
2018-07-24T15:18:20.363Z,2238.75
2018-07-24T15:19:20.492Z,2975.63
2018-07-24T15:20:20.830Z,3003.75
2018-07-24T15:21:20.871Z,3009.38
2018-07-24T15:22:21.095Z,3015.00
2018-07-24T15:23:21.373Z,3031.88
2018-07-24T15:24:21.515Z,3015.00
2018-07-24T15:25:21.707Z,3043.13
2018-07-24T15:26:21.853Z,3071.25
2018-07-24T15:27:22.124Z,3060.00
2018-07-24T15:28:22.260Z,3054.38
2018-07-24T15:29:22.487Z,3026.25
2018-07-24T15:30:22.635Z,3054.38
2018-07-24T15:31:22.712Z,3009.38
2018-07-24T15:32:23.107Z,2953.13
2018-07-24T15:33:23.275Z,2925.00
2018-07-24T15:34:23.766Z,2913.75
2018-07-24T15:35:23.546Z,2880.00
2018-07-24T15:36:23.761Z,2885.63
2018-07-24T15:37:23.990Z,2874.38
2018-07-24T15:38:24.089Z,2840.63
2018-07-24T15:39:24.299Z,2823.75
2018-07-24T15:40:24.556Z,2801.25
2018-07-24T15:41:24.748Z,2745.00
2018-07-24T15:42:24.837Z,2756.25
2018-07-24T15:43:24.995Z,2761.88
2018-07-24T15:44:25.234Z,2745.00
2018-07-24T15:45:25.371Z,2711.25
2018-07-24T15:46:25.520Z,2705.63
2018-07-24T15:47:25.800Z,2649.38
2018-07-24T15:48:25.860Z,2604.38
2018-07-24T15:49:26.029Z,2548.13
2018-07-24T15:50:26.298Z,2548.13
2018-07-24T15:51:26.382Z,2553.75
2018-07-24T15:52:26.725Z,2536.88
2018-07-24T15:53:26.848Z,2615.63
2018-07-24T15:54:26.934Z,2638.13
2018-07-24T15:55:27.131Z,2666.25
2018-07-24T15:56:27.332Z,2621.25